< < Back
Terminal Aerodrome Forecast


Current Version              Previous Versions:   1  2  3  4  5  6  7  8  9  

Terminal Aerodrome Forecast

704
FTUS42 KCAE 250900 AAA
TAFCAE
TAF AMD
KCAE 250913Z 2509/2606 12004KT P6SM BKN080
     FM251000 14004KT 5SM BR BKN008 OVC070
     FM251400 21012KT P6SM SCT025 BKN060
     FM251700 25015G25KT P6SM BKN035
     FM252300 28010KT P6SM SKC=

Latest METAR

865
SAUS80 KWBC 250900 RRA
MTRCAE
METAR KCAE 250856Z 10003KT 10SM FEW080 15/13 A2993 RMK AO2 SLP133
T01500133 56006


USA.gov is the U.S. government's official web portal to all federal, state and local government web resources and services.